sensor_id;sensor_type;location;lat;lon;timestamp;temperature;humidity
6421;DHT22;3243;50.958;7.012;2022-10-31T00:01:10;12.50;99.90
6421;DHT22;3243;50.958;7.012;2022-10-31T00:03:37;12.40;99.90
6421;DHT22;3243;50.958;7.012;2022-10-31T00:06:03;12.40;99.90
6421;DHT22;3243;50.958;7.012;2022-10-31T00:08:30;12.40;99.90
6421;DHT22;3243;50.958;7.012;2022-10-31T00:10:57;12.40;99.90
6421;DHT22;3243;50.958;7.012;2022-10-31T00:13:23;12.40;99.90
6421;DHT22;3243;50.958;7.012;2022-10-31T00:15:50;12.40;99.90
6421;DHT22;3243;50.958;7.012;2022-10-31T00:18:17;12.40;99.90
6421;DHT22;3243;50.958;7.012;2022-10-31T00:20:43;12.40;99.90
6421;DHT22;3243;50.958;7.012;2022-10-31T00:23:11;12.30;99.90
6421;DHT22;3243;50.958;7.012;2022-10-31T00:25:39;12.30;99.90
6421;DHT22;3243;50.958;7.012;2022-10-31T00:28:07;12.30;99.90
6421;DHT22;3243;50.958;7.012;2022-10-31T00:30:35;12.30;99.90
6421;DHT22;3243;50.958;7.012;2022-10-31T00:33:03;12.30;99.90
6421;DHT22;3243;50.958;7.012;2022-10-31T00:35:31;12.30;99.90
6421;DHT22;3243;50.958;7.012;2022-10-31T00:37:58;12.40;99.90
6421;DHT22;3243;50.958;7.012;2022-10-31T00:40:25;12.40;99.90
6421;DHT22;3243;50.958;7.012;2022-10-31T00:42:52;12.40;99.90
6421;DHT22;3243;50.958;7.012;2022-10-31T00:45:18;12.40;99.90
6421;DHT22;3243;50.958;7.012;2022-10-31T00:47:45;12.40;99.90
6421;DHT22;3243;50.958;7.012;2022-10-31T00:50:12;12.40;99.90
6421;DHT22;3243;50.958;7.012;2022-10-31T00:52:38;12.50;99.90
6421;DHT22;3243;50.958;7.012;2022-10-31T00:55:05;12.50;99.90
6421;DHT22;3243;50.958;7.012;2022-10-31T00:57:32;12.50;99.90
6421;DHT22;3243;50.958;7.012;2022-10-31T00:59:59;12.50;99.90
6421;DHT22;3243;50.958;7.012;2022-10-31T01:02:25;12.50;99.90
6421;DHT22;3243;50.958;7.012;2022-10-31T01:04:52;12.50;99.90
6421;DHT22;3243;50.958;7.012;2022-10-31T01:07:19;12.50;99.90
6421;DHT22;3243;50.958;7.012;2022-10-31T01:09:46;12.40;99.90
6421;DHT22;3243;50.958;7.012;2022-10-31T01:12:12;12.40;99.90
6421;DHT22;3243;50.958;7.012;2022-10-31T01:14:43;12.40;99.90
6421;DHT22;3243;50.958;7.012;2022-10-31T01:17:12;12.40;99.90
6421;DHT22;3243;50.958;7.012;2022-10-31T01:19:39;12.40;99.90
6421;DHT22;3243;50.958;7.012;2022-10-31T01:22:06;12.40;99.90
6421;DHT22;3243;50.958;7.012;2022-10-31T01:24:33;12.40;99.90
6421;DHT22;3243;50.958;7.012;2022-10-31T01:26:59;12.40;99.90
6421;DHT22;3243;50.958;7.012;2022-10-31T01:29:26;12.40;99.90
6421;DHT22;3243;50.958;7.012;2022-10-31T01:31:53;12.40;99.90
6421;DHT22;3243;50.958;7.012;2022-10-31T01:34:19;12.40;99.90
6421;DHT22;3243;50.958;7.012;2022-10-31T01:36:46;12.40;99.90
6421;DHT22;3243;50.958;7.012;2022-10-31T01:39:18;12.40;99.90
6421;DHT22;3243;50.958;7.012;2022-10-31T01:41:50;12.40;99.90
6421;DHT22;3243;50.958;7.012;2022-10-31T01:47:05;12.40;99.90
6421;DHT22;3243;50.958;7.012;2022-10-31T01:49:37;12.40;99.90
6421;DHT22;3243;50.958;7.012;2022-10-31T01:52:22;12.40;99.90
6421;DHT22;3243;50.958;7.012;2022-10-31T01:57:35;12.30;99.90
6421;DHT22;3243;50.958;7.012;2022-10-31T02:00:07;12.30;99.90
6421;DHT22;3243;50.958;7.012;2022-10-31T02:02:35;12.20;99.90
6421;DHT22;3243;50.958;7.012;2022-10-31T02:05:05;12.20;99.90
6421;DHT22;3243;50.958;7.012;2022-10-31T02:10:22;12.10;99.90
6421;DHT22;3243;50.958;7.012;2022-10-31T02:12:54;12.10;99.90
6421;DHT22;3243;50.958;7.012;2022-10-31T02:15:21;12.00;99.90
6421;DHT22;3243;50.958;7.012;2022-10-31T02:17:48;12.10;99.90
6421;DHT22;3243;50.958;7.012;2022-10-31T02:20:16;12.00;99.90
6421;DHT22;3243;50.958;7.012;2022-10-31T02:31:35;11.90;99.90
6421;DHT22;3243;50.958;7.012;2022-10-31T02:34:36;11.90;99.90
6421;DHT22;3243;50.958;7.012;2022-10-31T02:37:59;11.80;99.90
6421;DHT22;3243;50.958;7.012;2022-10-31T02:40:20;11.80;99.90
6421;DHT22;3243;50.958;7.012;2022-10-31T02:43:05;11.80;99.90
6421;DHT22;3243;50.958;7.012;2022-10-31T02:45:41;11.80;99.90
6421;DHT22;3243;50.958;7.012;2022-10-31T02:48:14;11.80;99.90
6421;DHT22;3243;50.958;7.012;2022-10-31T02:50:45;11.90;99.90
6421;DHT22;3243;50.958;7.012;2022-10-31T02:53:15;12.00;99.90
6421;DHT22;3243;50.958;7.012;2022-10-31T02:55:44;12.10;99.90
6421;DHT22;3243;50.958;7.012;2022-10-31T02:58:16;12.20;99.90
6421;DHT22;3243;50.958;7.012;2022-10-31T03:12:01;12.60;99.90
6421;DHT22;3243;50.958;7.012;2022-10-31T03:17:39;12.70;99.90
6421;DHT22;3243;50.958;7.012;2022-10-31T03:20:09;12.70;99.90
6421;DHT22;3243;50.958;7.012;2022-10-31T03:22:39;12.60;99.90
6421;DHT22;3243;50.958;7.012;2022-10-31T03:25:07;12.50;99.90
6421;DHT22;3243;50.958;7.012;2022-10-31T03:27:36;12.50;99.90
6421;DHT22;3243;50.958;7.012;2022-10-31T03:30:05;12.50;99.90
6421;DHT22;3243;50.958;7.012;2022-10-31T03:32:47;12.40;99.90
6421;DHT22;3243;50.958;7.012;2022-10-31T03:35:18;12.50;99.90
6421;DHT22;3243;50.958;7.012;2022-10-31T03:37:47;12.40;99.90
6421;DHT22;3243;50.958;7.012;2022-10-31T03:40:15;12.40;99.90
6421;DHT22;3243;50.958;7.012;2022-10-31T03:42:49;12.40;99.90
6421;DHT22;3243;50.958;7.012;2022-10-31T03:45:41;12.40;99.90
6421;DHT22;3243;50.958;7.012;2022-10-31T03:48:08;12.40;99.90
6421;DHT22;3243;50.958;7.012;2022-10-31T03:53:34;12.30;99.90
6421;DHT22;3243;50.958;7.012;2022-10-31T03:56:09;12.30;99.90
6421;DHT22;3243;50.958;7.012;2022-10-31T03:59:45;12.20;99.90
6421;DHT22;3243;50.958;7.012;2022-10-31T04:01:43;12.20;99.90
6421;DHT22;3243;50.958;7.012;2022-10-31T04:04:11;12.30;99.90
6421;DHT22;3243;50.958;7.012;2022-10-31T04:06:40;12.30;99.90
6421;DHT22;3243;50.958;7.012;2022-10-31T04:09:09;12.30;99.90
6421;DHT22;3243;50.958;7.012;2022-10-31T04:11:40;12.30;99.90
6421;DHT22;3243;50.958;7.012;2022-10-31T04:14:08;12.30;99.90
6421;DHT22;3243;50.958;7.012;2022-10-31T04:16:35;12.20;99.90
6421;DHT22;3243;50.958;7.012;2022-10-31T04:19:02;12.20;99.90
6421;DHT22;3243;50.958;7.012;2022-10-31T04:21:29;12.20;99.90
6421;DHT22;3243;50.958;7.012;2022-10-31T04:23:57;12.20;99.90
6421;DHT22;3243;50.958;7.012;2022-10-31T04:26:24;12.20;99.90
6421;DHT22;3243;50.958;7.012;2022-10-31T04:28:50;12.10;99.90
6421;DHT22;3243;50.958;7.012;2022-10-31T04:31:17;12.10;99.90
6421;DHT22;3243;50.958;7.012;2022-10-31T04:33:44;12.00;99.90
6421;DHT22;3243;50.958;7.012;2022-10-31T04:36:11;11.90;99.90
6421;DHT22;3243;50.958;7.012;2022-10-31T04:38:37;11.80;99.90
6421;DHT22;3243;50.958;7.012;2022-10-31T04:41:04;11.80;99.90
6421;DHT22;3243;50.958;7.012;2022-10-31T04:43:31;11.80;99.90
6421;DHT22;3243;50.958;7.012;2022-10-31T04:45:58;11.90;99.90
6421;DHT22;3243;50.958;7.012;2022-10-31T04:48:24;11.90;99.90
6421;DHT22;3243;50.958;7.012;2022-10-31T04:50:51;11.80;99.90
6421;DHT22;3243;50.958;7.012;2022-10-31T04:53:18;11.80;99.90
6421;DHT22;3243;50.958;7.012;2022-10-31T04:55:44;11.80;99.90
6421;DHT22;3243;50.958;7.012;2022-10-31T04:58:11;11.80;99.90
6421;DHT22;3243;50.958;7.012;2022-10-31T05:00:38;11.70;99.90
6421;DHT22;3243;50.958;7.012;2022-10-31T05:03:04;11.80;99.90
6421;DHT22;3243;50.958;7.012;2022-10-31T05:05:31;11.70;99.90
6421;DHT22;3243;50.958;7.012;2022-10-31T05:07:58;11.70;99.90
6421;DHT22;3243;50.958;7.012;2022-10-31T05:10:27;11.70;99.90
6421;DHT22;3243;50.958;7.012;2022-10-31T05:12:56;11.70;99.90
6421;DHT22;3243;50.958;7.012;2022-10-31T05:15:25;11.70;99.90
6421;DHT22;3243;50.958;7.012;2022-10-31T05:17:54;11.80;99.90
6421;DHT22;3243;50.958;7.012;2022-10-31T05:20:23;11.80;99.90
6421;DHT22;3243;50.958;7.012;2022-10-31T05:22:52;11.70;99.90
6421;DHT22;3243;50.958;7.012;2022-10-31T05:25:20;11.70;99.90
6421;DHT22;3243;50.958;7.012;2022-10-31T05:27:49;11.60;99.90
6421;DHT22;3243;50.958;7.012;2022-10-31T05:30:22;11.60;99.90
6421;DHT22;3243;50.958;7.012;2022-10-31T05:32:50;11.70;99.90
6421;DHT22;3243;50.958;7.012;2022-10-31T05:35:20;11.60;99.90
6421;DHT22;3243;50.958;7.012;2022-10-31T05:37:46;11.60;99.90
6421;DHT22;3243;50.958;7.012;2022-10-31T05:40:15;11.50;99.90
6421;DHT22;3243;50.958;7.012;2022-10-31T05:42:43;11.40;99.90
6421;DHT22;3243;50.958;7.012;2022-10-31T05:45:12;11.50;99.90
6421;DHT22;3243;50.958;7.012;2022-10-31T05:47:39;11.40;99.90
6421;DHT22;3243;50.958;7.012;2022-10-31T05:50:07;11.40;99.90
6421;DHT22;3243;50.958;7.012;2022-10-31T05:52:35;11.30;99.90
6421;DHT22;3243;50.958;7.012;2022-10-31T05:55:02;11.30;99.90
6421;DHT22;3243;50.958;7.012;2022-10-31T05:57:29;11.30;99.90
6421;DHT22;3243;50.958;7.012;2022-10-31T05:59:58;11.30;99.90
6421;DHT22;3243;50.958;7.012;2022-10-31T06:02:24;11.30;99.90
6421;DHT22;3243;50.958;7.012;2022-10-31T06:04:53;11.20;99.90
6421;DHT22;3243;50.958;7.012;2022-10-31T06:07:23;11.20;99.90
6421;DHT22;3243;50.958;7.012;2022-10-31T06:09:49;11.30;99.90
6421;DHT22;3243;50.958;7.012;2022-10-31T06:12:16;11.20;99.90
6421;DHT22;3243;50.958;7.012;2022-10-31T06:14:43;11.30;99.90
6421;DHT22;3243;50.958;7.012;2022-10-31T06:17:09;11.20;99.90
6421;DHT22;3243;50.958;7.012;2022-10-31T06:19:36;11.20;99.90
6421;DHT22;3243;50.958;7.012;2022-10-31T06:22:03;11.20;99.90
6421;DHT22;3243;50.958;7.012;2022-10-31T06:24:29;11.20;99.90
6421;DHT22;3243;50.958;7.012;2022-10-31T06:26:56;11.20;99.90
6421;DHT22;3243;50.958;7.012;2022-10-31T06:29:23;11.20;99.90
6421;DHT22;3243;50.958;7.012;2022-10-31T06:31:51;11.30;99.90
6421;DHT22;3243;50.958;7.012;2022-10-31T06:34:18;11.20;99.90
6421;DHT22;3243;50.958;7.012;2022-10-31T06:36:46;11.30;99.90
6421;DHT22;3243;50.958;7.012;2022-10-31T06:39:13;11.30;99.90
6421;DHT22;3243;50.958;7.012;2022-10-31T06:41:40;11.30;99.90
6421;DHT22;3243;50.958;7.012;2022-10-31T06:44:07;11.40;99.90
6421;DHT22;3243;50.958;7.012;2022-10-31T06:46:34;11.40;99.90
6421;DHT22;3243;50.958;7.012;2022-10-31T06:49:01;11.40;99.90
6421;DHT22;3243;50.958;7.012;2022-10-31T06:51:27;11.40;99.90
6421;DHT22;3243;50.958;7.012;2022-10-31T06:53:54;11.40;99.90
6421;DHT22;3243;50.958;7.012;2022-10-31T06:56:21;11.50;99.90
6421;DHT22;3243;50.958;7.012;2022-10-31T06:58:47;11.60;99.90
6421;DHT22;3243;50.958;7.012;2022-10-31T07:01:14;11.60;99.90
6421;DHT22;3243;50.958;7.012;2022-10-31T07:03:41;11.60;99.90
6421;DHT22;3243;50.958;7.012;2022-10-31T07:06:08;11.60;99.90
6421;DHT22;3243;50.958;7.012;2022-10-31T07:08:34;11.70;99.90
6421;DHT22;3243;50.958;7.012;2022-10-31T07:11:01;11.80;99.90
6421;DHT22;3243;50.958;7.012;2022-10-31T07:13:28;11.80;99.90
6421;DHT22;3243;50.958;7.012;2022-10-31T07:16:00;11.90;99.90
6421;DHT22;3243;50.958;7.012;2022-10-31T07:18:27;12.10;99.90
6421;DHT22;3243;50.958;7.012;2022-10-31T07:20:54;12.20;99.90
6421;DHT22;3243;50.958;7.012;2022-10-31T07:23:21;12.20;99.90
6421;DHT22;3243;50.958;7.012;2022-10-31T07:25:48;12.30;99.90
6421;DHT22;3243;50.958;7.012;2022-10-31T07:28:15;12.40;99.90
6421;DHT22;3243;50.958;7.012;2022-10-31T07:30:41;12.40;99.90
6421;DHT22;3243;50.958;7.012;2022-10-31T07:33:08;12.40;99.90
6421;DHT22;3243;50.958;7.012;2022-10-31T07:35:35;12.40;99.90
6421;DHT22;3243;50.958;7.012;2022-10-31T07:38:11;12.50;99.90
6421;DHT22;3243;50.958;7.012;2022-10-31T07:40:38;12.50;99.90
6421;DHT22;3243;50.958;7.012;2022-10-31T07:43:05;12.40;99.90
6421;DHT22;3243;50.958;7.012;2022-10-31T07:45:39;12.50;99.90
6421;DHT22;3243;50.958;7.012;2022-10-31T07:48:06;12.50;99.90
6421;DHT22;3243;50.958;7.012;2022-10-31T07:50:33;12.60;99.90
6421;DHT22;3243;50.958;7.012;2022-10-31T07:53:08;12.60;99.90
6421;DHT22;3243;50.958;7.012;2022-10-31T07:55:36;12.60;99.90
6421;DHT22;3243;50.958;7.012;2022-10-31T07:58:11;12.70;99.90
6421;DHT22;3243;50.958;7.012;2022-10-31T08:00:40;12.70;99.90
6421;DHT22;3243;50.958;7.012;2022-10-31T08:03:12;12.70;99.90
6421;DHT22;3243;50.958;7.012;2022-10-31T08:05:40;12.70;99.90
6421;DHT22;3243;50.958;7.012;2022-10-31T08:08:12;12.70;99.90
6421;DHT22;3243;50.958;7.012;2022-10-31T08:10:40;12.70;99.90
6421;DHT22;3243;50.958;7.012;2022-10-31T08:13:12;12.80;99.90
6421;DHT22;3243;50.958;7.012;2022-10-31T08:15:39;12.80;99.90
6421;DHT22;3243;50.958;7.012;2022-10-31T08:18:14;12.80;99.90
6421;DHT22;3243;50.958;7.012;2022-10-31T08:20:42;12.90;99.90
6421;DHT22;3243;50.958;7.012;2022-10-31T08:23:10;12.90;99.90
6421;DHT22;3243;50.958;7.012;2022-10-31T08:25:37;12.90;99.90
6421;DHT22;3243;50.958;7.012;2022-10-31T08:28:06;12.90;99.90
6421;DHT22;3243;50.958;7.012;2022-10-31T08:30:34;12.80;99.90
6421;DHT22;3243;50.958;7.012;2022-10-31T08:33:11;12.80;99.90
6421;DHT22;3243;50.958;7.012;2022-10-31T08:35:39;12.90;99.90
6421;DHT22;3243;50.958;7.012;2022-10-31T08:38:06;12.90;99.90
6421;DHT22;3243;50.958;7.012;2022-10-31T08:40:34;13.00;99.90
6421;DHT22;3243;50.958;7.012;2022-10-31T08:43:13;13.00;99.90
6421;DHT22;3243;50.958;7.012;2022-10-31T08:45:40;13.00;99.90
6421;DHT22;3243;50.958;7.012;2022-10-31T08:48:10;13.10;99.90
6421;DHT22;3243;50.958;7.012;2022-10-31T08:50:37;13.10;99.90
6421;DHT22;3243;50.958;7.012;2022-10-31T08:53:09;13.20;99.90
6421;DHT22;3243;50.958;7.012;2022-10-31T08:55:39;13.30;99.90
6421;DHT22;3243;50.958;7.012;2022-10-31T08:58:11;13.40;99.90
6421;DHT22;3243;50.958;7.012;2022-10-31T09:00:38;13.50;99.90
6421;DHT22;3243;50.958;7.012;2022-10-31T09:03:26;13.60;99.90
6421;DHT22;3243;50.958;7.012;2022-10-31T09:06:00;13.70;99.90
6421;DHT22;3243;50.958;7.012;2022-10-31T09:08:29;13.80;99.90
6421;DHT22;3243;50.958;7.012;2022-10-31T09:10:57;13.90;99.90
6421;DHT22;3243;50.958;7.012;2022-10-31T09:13:24;14.00;99.90
6421;DHT22;3243;50.958;7.012;2022-10-31T09:15:55;14.00;99.90
6421;DHT22;3243;50.958;7.012;2022-10-31T09:18:23;14.10;99.90
6421;DHT22;3243;50.958;7.012;2022-10-31T09:20:50;14.10;99.90
6421;DHT22;3243;50.958;7.012;2022-10-31T09:23:19;14.10;99.90
6421;DHT22;3243;50.958;7.012;2022-10-31T09:25:47;14.20;99.90
6421;DHT22;3243;50.958;7.012;2022-10-31T09:28:18;14.30;99.90
6421;DHT22;3243;50.958;7.012;2022-10-31T09:30:47;14.30;99.90
6421;DHT22;3243;50.958;7.012;2022-10-31T09:33:14;14.20;99.90
6421;DHT22;3243;50.958;7.012;2022-10-31T09:35:41;14.20;99.90
6421;DHT22;3243;50.958;7.012;2022-10-31T09:38:16;14.30;99.90
6421;DHT22;3243;50.958;7.012;2022-10-31T09:40:51;14.30;99.90
6421;DHT22;3243;50.958;7.012;2022-10-31T09:43:29;14.30;99.90
6421;DHT22;3243;50.958;7.012;2022-10-31T09:51:49;14.50;99.90
6421;DHT22;3243;50.958;7.012;2022-10-31T09:55:08;14.70;99.90
6421;DHT22;3243;50.958;7.012;2022-10-31T09:57:14;14.90;99.90
6421;DHT22;3243;50.958;7.012;2022-10-31T09:59:43;15.00;99.90
6421;DHT22;3243;50.958;7.012;2022-10-31T10:04:59;15.40;99.90
6421;DHT22;3243;50.958;7.012;2022-10-31T10:12:43;15.80;99.90
6421;DHT22;3243;50.958;7.012;2022-10-31T10:15:30;15.80;99.90
6421;DHT22;3243;50.958;7.012;2022-10-31T10:18:16;15.80;99.90
6421;DHT22;3243;50.958;7.012;2022-10-31T10:26:19;16.10;99.90
6421;DHT22;3243;50.958;7.012;2022-10-31T10:28:50;16.30;99.90
6421;DHT22;3243;50.958;7.012;2022-10-31T10:31:28;16.40;99.90
6421;DHT22;3243;50.958;7.012;2022-10-31T10:34:13;16.60;99.90
6421;DHT22;3243;50.958;7.012;2022-10-31T10:40:05;16.90;99.90
6421;DHT22;3243;50.958;7.012;2022-10-31T10:42:33;17.00;99.90
6421;DHT22;3243;50.958;7.012;2022-10-31T10:45:19;17.10;99.90
6421;DHT22;3243;50.958;7.012;2022-10-31T10:48:30;17.20;99.90
6421;DHT22;3243;50.958;7.012;2022-10-31T10:51:00;17.50;99.90
6421;DHT22;3243;50.958;7.012;2022-10-31T10:53:41;17.50;99.90
6421;DHT22;3243;50.958;7.012;2022-10-31T10:56:54;17.60;99.90
6421;DHT22;3243;50.958;7.012;2022-10-31T10:59:22;17.70;99.90
6421;DHT22;3243;50.958;7.012;2022-10-31T11:01:50;17.70;99.90
6421;DHT22;3243;50.958;7.012;2022-10-31T11:04:31;17.70;99.90
6421;DHT22;3243;50.958;7.012;2022-10-31T11:06:59;17.60;99.90
6421;DHT22;3243;50.958;7.012;2022-10-31T11:09:26;17.60;99.90
6421;DHT22;3243;50.958;7.012;2022-10-31T11:11:54;17.60;99.90
6421;DHT22;3243;50.958;7.012;2022-10-31T11:14:23;17.60;99.90
6421;DHT22;3243;50.958;7.012;2022-10-31T11:17:19;17.60;99.90
6421;DHT22;3243;50.958;7.012;2022-10-31T11:19:46;17.60;99.90
6421;DHT22;3243;50.958;7.012;2022-10-31T11:22:16;17.70;99.90
6421;DHT22;3243;50.958;7.012;2022-10-31T11:24:44;17.80;99.90
6421;DHT22;3243;50.958;7.012;2022-10-31T11:27:21;17.90;99.90
6421;DHT22;3243;50.958;7.012;2022-10-31T11:29:49;17.90;99.90
6421;DHT22;3243;50.958;7.012;2022-10-31T11:32:21;17.90;99.90
6421;DHT22;3243;50.958;7.012;2022-10-31T11:34:52;17.80;99.90
6421;DHT22;3243;50.958;7.012;2022-10-31T11:37:25;17.70;99.90
6421;DHT22;3243;50.958;7.012;2022-10-31T11:39:54;17.70;99.90
6421;DHT22;3243;50.958;7.012;2022-10-31T11:42:24;17.60;99.90
6421;DHT22;3243;50.958;7.012;2022-10-31T11:44:53;17.60;99.90
6421;DHT22;3243;50.958;7.012;2022-10-31T11:47:28;17.50;99.90
6421;DHT22;3243;50.958;7.012;2022-10-31T11:49:56;17.60;99.90
6421;DHT22;3243;50.958;7.012;2022-10-31T11:52:29;17.70;99.90
6421;DHT22;3243;50.958;7.012;2022-10-31T11:57:41;17.80;99.90
6421;DHT22;3243;50.958;7.012;2022-10-31T12:00:32;17.90;99.90
6421;DHT22;3243;50.958;7.012;2022-10-31T12:06:21;18.00;99.90
6421;DHT22;3243;50.958;7.012;2022-10-31T12:08:45;18.00;99.90
6421;DHT22;3243;50.958;7.012;2022-10-31T12:11:37;18.00;99.90
6421;DHT22;3243;50.958;7.012;2022-10-31T12:17:23;17.90;99.90
6421;DHT22;3243;50.958;7.012;2022-10-31T12:23:01;17.90;99.90
6421;DHT22;3243;50.958;7.012;2022-10-31T12:37:03;17.90;99.90
6421;DHT22;3243;50.958;7.012;2022-10-31T12:45:49;18.00;99.90
6421;DHT22;3243;50.958;7.012;2022-10-31T12:59:49;18.40;99.90
6421;DHT22;3243;50.958;7.012;2022-10-31T13:02:27;18.40;99.90
6421;DHT22;3243;50.958;7.012;2022-10-31T13:05:41;18.40;99.90
6421;DHT22;3243;50.958;7.012;2022-10-31T13:07:57;18.40;99.90
6421;DHT22;3243;50.958;7.012;2022-10-31T13:10:30;18.40;99.90
6421;DHT22;3243;50.958;7.012;2022-10-31T13:13:05;18.40;99.90
6421;DHT22;3243;50.958;7.012;2022-10-31T13:15:45;18.40;99.90
6421;DHT22;3243;50.958;7.012;2022-10-31T13:18:33;18.50;99.90
6421;DHT22;3243;50.958;7.012;2022-10-31T13:21:03;18.50;99.90
6421;DHT22;3243;50.958;7.012;2022-10-31T13:23:33;18.60;99.90
6421;DHT22;3243;50.958;7.012;2022-10-31T13:26:35;18.70;99.90
6421;DHT22;3243;50.958;7.012;2022-10-31T13:31:52;18.90;99.90
6421;DHT22;3243;50.958;7.012;2022-10-31T13:34:27;18.90;99.90
6421;DHT22;3243;50.958;7.012;2022-10-31T13:39:45;18.80;99.90
6421;DHT22;3243;50.958;7.012;2022-10-31T13:44:47;18.80;99.90
6421;DHT22;3243;50.958;7.012;2022-10-31T13:47:27;18.70;99.90
6421;DHT22;3243;50.958;7.012;2022-10-31T13:50:18;18.70;99.90
6421;DHT22;3243;50.958;7.012;2022-10-31T13:52:45;18.60;99.90
6421;DHT22;3243;50.958;7.012;2022-10-31T13:55:42;18.50;99.90
6421;DHT22;3243;50.958;7.012;2022-10-31T13:58:30;18.50;99.90
6421;DHT22;3243;50.958;7.012;2022-10-31T14:03:40;18.50;99.90
6421;DHT22;3243;50.958;7.012;2022-10-31T14:06:37;18.50;99.90
6421;DHT22;3243;50.958;7.012;2022-10-31T14:09:05;18.50;99.90
6421;DHT22;3243;50.958;7.012;2022-10-31T14:11:32;18.40;99.90
6421;DHT22;3243;50.958;7.012;2022-10-31T14:14:02;18.50;99.90
6421;DHT22;3243;50.958;7.012;2022-10-31T14:16:31;18.40;99.90
6421;DHT22;3243;50.958;7.012;2022-10-31T14:19:01;18.40;99.90
6421;DHT22;3243;50.958;7.012;2022-10-31T14:21:31;18.40;99.90
6421;DHT22;3243;50.958;7.012;2022-10-31T14:23:58;18.40;99.90
6421;DHT22;3243;50.958;7.012;2022-10-31T14:28:55;18.40;99.90
6421;DHT22;3243;50.958;7.012;2022-10-31T14:31:35;18.40;99.90
6421;DHT22;3243;50.958;7.012;2022-10-31T14:34:36;18.40;99.90
6421;DHT22;3243;50.958;7.012;2022-10-31T14:51:03;18.50;99.90
6421;DHT22;3243;50.958;7.012;2022-10-31T14:53:49;18.40;99.90
6421;DHT22;3243;50.958;7.012;2022-10-31T14:56:24;18.40;99.90
6421;DHT22;3243;50.958;7.012;2022-10-31T14:58:53;18.50;99.90
6421;DHT22;3243;50.958;7.012;2022-10-31T15:01:35;18.50;99.90
6421;DHT22;3243;50.958;7.012;2022-10-31T15:04:19;18.50;99.90
6421;DHT22;3243;50.958;7.012;2022-10-31T15:07:13;18.40;99.90
6421;DHT22;3243;50.958;7.012;2022-10-31T15:09:57;18.30;99.90
6421;DHT22;3243;50.958;7.012;2022-10-31T15:12:29;18.30;99.90
6421;DHT22;3243;50.958;7.012;2022-10-31T15:14:56;18.20;99.90
6421;DHT22;3243;50.958;7.012;2022-10-31T15:17:26;18.20;99.90
6421;DHT22;3243;50.958;7.012;2022-10-31T15:19:53;18.10;99.90
6421;DHT22;3243;50.958;7.012;2022-10-31T15:22:23;18.10;99.90
6421;DHT22;3243;50.958;7.012;2022-10-31T15:24:50;18.10;99.90
6421;DHT22;3243;50.958;7.012;2022-10-31T15:27:23;18.10;99.90
6421;DHT22;3243;50.958;7.012;2022-10-31T15:29:53;18.00;99.90
6421;DHT22;3243;50.958;7.012;2022-10-31T15:32:23;17.90;99.90
6421;DHT22;3243;50.958;7.012;2022-10-31T15:34:51;17.90;99.90
6421;DHT22;3243;50.958;7.012;2022-10-31T15:37:20;17.80;99.90
6421;DHT22;3243;50.958;7.012;2022-10-31T15:39:48;17.70;99.90
6421;DHT22;3243;50.958;7.012;2022-10-31T15:42:27;17.70;99.90
6421;DHT22;3243;50.958;7.012;2022-10-31T15:45:01;17.60;99.90
6421;DHT22;3243;50.958;7.012;2022-10-31T15:47:30;17.50;99.90
6421;DHT22;3243;50.958;7.012;2022-10-31T15:49:59;17.40;99.90
6421;DHT22;3243;50.958;7.012;2022-10-31T15:52:40;17.30;99.90
6421;DHT22;3243;50.958;7.012;2022-10-31T15:55:22;17.10;99.90
6421;DHT22;3243;50.958;7.012;2022-10-31T15:57:52;17.00;99.90
6421;DHT22;3243;50.958;7.012;2022-10-31T16:00:27;17.00;99.90
6421;DHT22;3243;50.958;7.012;2022-10-31T16:03:25;16.90;99.90
6421;DHT22;3243;50.958;7.012;2022-10-31T16:05:54;16.90;99.90
6421;DHT22;3243;50.958;7.012;2022-10-31T16:11:37;16.70;99.90
6421;DHT22;3243;50.958;7.012;2022-10-31T16:14:06;16.70;99.90
6421;DHT22;3243;50.958;7.012;2022-10-31T16:16:41;16.60;99.90
6421;DHT22;3243;50.958;7.012;2022-10-31T16:19:17;16.60;99.90
6421;DHT22;3243;50.958;7.012;2022-10-31T16:21:44;16.50;99.90
6421;DHT22;3243;50.958;7.012;2022-10-31T16:24:33;16.40;99.90
6421;DHT22;3243;50.958;7.012;2022-10-31T16:27:05;16.30;99.90
6421;DHT22;3243;50.958;7.012;2022-10-31T16:29:43;16.20;99.90
6421;DHT22;3243;50.958;7.012;2022-10-31T16:32:33;16.30;99.90
6421;DHT22;3243;50.958;7.012;2022-10-31T16:37:27;16.30;99.90
6421;DHT22;3243;50.958;7.012;2022-10-31T16:39:54;16.30;99.90
6421;DHT22;3243;50.958;7.012;2022-10-31T16:42:21;16.40;99.90
6421;DHT22;3243;50.958;7.012;2022-10-31T16:44:48;16.30;99.90
6421;DHT22;3243;50.958;7.012;2022-10-31T16:47:17;16.20;99.90
6421;DHT22;3243;50.958;7.012;2022-10-31T16:49:47;16.10;99.90
6421;DHT22;3243;50.958;7.012;2022-10-31T16:52:15;16.10;99.90
6421;DHT22;3243;50.958;7.012;2022-10-31T16:54:42;16.10;99.90
6421;DHT22;3243;50.958;7.012;2022-10-31T16:57:14;16.00;99.90
6421;DHT22;3243;50.958;7.012;2022-10-31T16:59:42;16.00;99.90
6421;DHT22;3243;50.958;7.012;2022-10-31T17:02:14;16.00;99.90
6421;DHT22;3243;50.958;7.012;2022-10-31T17:04:41;16.00;99.90
6421;DHT22;3243;50.958;7.012;2022-10-31T17:07:08;16.10;99.90
6421;DHT22;3243;50.958;7.012;2022-10-31T17:09:34;16.20;99.90
6421;DHT22;3243;50.958;7.012;2022-10-31T17:12:01;16.30;99.90
6421;DHT22;3243;50.958;7.012;2022-10-31T17:14:28;16.30;99.90
6421;DHT22;3243;50.958;7.012;2022-10-31T17:16:55;16.20;99.90
6421;DHT22;3243;50.958;7.012;2022-10-31T17:19:25;16.20;99.90
6421;DHT22;3243;50.958;7.012;2022-10-31T17:21:51;16.10;99.90
6421;DHT22;3243;50.958;7.012;2022-10-31T17:24:18;16.00;99.90
6421;DHT22;3243;50.958;7.012;2022-10-31T17:26:45;15.90;99.90
6421;DHT22;3243;50.958;7.012;2022-10-31T17:29:12;15.90;99.90
6421;DHT22;3243;50.958;7.012;2022-10-31T17:31:39;15.80;99.90
6421;DHT22;3243;50.958;7.012;2022-10-31T17:34:08;15.80;99.90
6421;DHT22;3243;50.958;7.012;2022-10-31T17:36:35;15.80;99.90
6421;DHT22;3243;50.958;7.012;2022-10-31T17:39:03;15.80;99.90
6421;DHT22;3243;50.958;7.012;2022-10-31T17:41:32;15.80;99.90
6421;DHT22;3243;50.958;7.012;2022-10-31T17:43:59;15.80;99.90
6421;DHT22;3243;50.958;7.012;2022-10-31T17:46:26;15.80;99.90
6421;DHT22;3243;50.958;7.012;2022-10-31T17:48:54;15.80;99.90
6421;DHT22;3243;50.958;7.012;2022-10-31T17:51:20;15.80;99.90
6421;DHT22;3243;50.958;7.012;2022-10-31T17:53:47;15.80;99.90
6421;DHT22;3243;50.958;7.012;2022-10-31T17:56:14;15.70;99.90
6421;DHT22;3243;50.958;7.012;2022-10-31T17:58:41;15.70;99.90
6421;DHT22;3243;50.958;7.012;2022-10-31T18:01:09;15.60;99.90
6421;DHT22;3243;50.958;7.012;2022-10-31T18:03:37;15.60;99.90
6421;DHT22;3243;50.958;7.012;2022-10-31T18:06:04;15.60;99.90
6421;DHT22;3243;50.958;7.012;2022-10-31T18:08:33;15.50;99.90
6421;DHT22;3243;50.958;7.012;2022-10-31T18:11:05;15.50;99.90
6421;DHT22;3243;50.958;7.012;2022-10-31T18:13:35;15.40;99.90
6421;DHT22;3243;50.958;7.012;2022-10-31T18:16:05;15.40;99.90
6421;DHT22;3243;50.958;7.012;2022-10-31T18:18:32;15.50;99.90
6421;DHT22;3243;50.958;7.012;2022-10-31T18:20:58;15.50;99.90
6421;DHT22;3243;50.958;7.012;2022-10-31T18:23:25;15.50;99.90
6421;DHT22;3243;50.958;7.012;2022-10-31T18:25:53;15.50;99.90
6421;DHT22;3243;50.958;7.012;2022-10-31T18:28:20;15.50;99.90
6421;DHT22;3243;50.958;7.012;2022-10-31T18:30:47;15.50;99.90
6421;DHT22;3243;50.958;7.012;2022-10-31T18:33:13;15.60;99.90
6421;DHT22;3243;50.958;7.012;2022-10-31T18:35:40;15.70;99.90
6421;DHT22;3243;50.958;7.012;2022-10-31T18:38:07;15.70;99.90